If you wish to contribute or participate in the discussions about articles you are invited to join SKYbrary as a registered user

 Actions

Rome/Ciampino

From SKYbrary Wiki

LIRA /
Revision as of 12:52, 1 April 2010 by Editor1 (talk | contribs) (Created page with '{{Airport |Airport_Name=Rome/Ciampino |ICAO_Region=EUR |ICAO_Territory=LI |Location=Rome, Italy |Coordinates=41° 47′ 54″ N, 12° 35′ 48″ E }} __NOTOC__ =Rome/Ciampino Ai…')
(diff) ← Older revision | Latest revision (diff) | Newer revision → (diff)
Airport
ICAO: LIRA
Summary
Name Rome/Ciampino
Region Europe
Territory Italy IT.gif
Location Rome, Italy
Serving
Coordinates 41° 47' 54.00" N, 12° 35' 48.00" E
Runways
Designator Length Width Surface ROPS
15/33 2207 m7,240.814 ft <br /> 47 m154.199 ft <br /> ASP yes/yes


METAR
Observation LIRA 201850Z 16006KT CAVOK 15/11 Q1025
Station Roma / Ciampino
Date/Time 20 October 2021 18:50:00
Wind direction 160°
Wind speed 06 kts
Lowest cloud amount clouds and visibility OK
Temperature 15°C
Dew point 11°C
Humidity 77%
QNH 1025 hPa
Weather condition n/a


Rome/Ciampino Airport

ICAO: LIRA IATA: CIA

Description

International airport serving...

Climatology

Maps

Terrain

Loading map...

Airport Layout

Loading map...

Accidents & Serious Incidents at or in vicinity of LIRA